createdAt,value
2019-03-18T00:00:48.317Z,100155.80
2019-03-18T00:03:18.064Z,100159.11
2019-03-18T00:05:47.800Z,100164.59
2019-03-18T00:08:17.585Z,100171.48
2019-03-18T00:10:47.367Z,100169.57
2019-03-18T00:13:17.156Z,100168.20
2019-03-18T00:15:46.966Z,100169.89
2019-03-18T00:18:16.644Z,100167.91
2019-03-18T00:20:46.441Z,100161.84
2019-03-18T00:23:16.257Z,100158.23
2019-03-18T00:25:46.026Z,100168.80
2019-03-18T00:28:15.790Z,100164.34
2019-03-18T00:30:45.584Z,100168.48
2019-03-18T00:33:15.310Z,100169.89
2019-03-18T00:35:45.066Z,100161.06
2019-03-18T00:38:14.946Z,100162.72
2019-03-18T00:40:44.656Z,100164.88
2019-03-18T00:43:14.531Z,100142.92
2019-03-18T00:45:44.266Z,100164.97
2019-03-18T00:48:13.969Z,100158.33
2019-03-18T00:50:43.681Z,100163.53
2019-03-18T00:53:13.367Z,100150.88
2019-03-18T00:55:43.099Z,100159.71
2019-03-18T00:58:13.177Z,100174.05
2019-03-18T01:00:42.943Z,100156.39
2019-03-18T01:03:12.644Z,100170.45
2019-03-18T01:05:42.524Z,100169.08
2019-03-18T01:08:12.441Z,100158.61
2019-03-18T01:10:42.338Z,100165.78
2019-03-18T01:13:12.138Z,100184.52
2019-03-18T01:15:41.913Z,100174.88
2019-03-18T01:18:11.731Z,100164.66
2019-03-18T01:20:41.418Z,100160.78
2019-03-18T01:23:11.172Z,100170.39
2019-03-18T01:25:40.899Z,100176.71
2019-03-18T01:28:10.610Z,100177.23
2019-03-18T01:30:40.586Z,100169.50
2019-03-18T01:33:10.247Z,100170.35
2019-03-18T01:35:40.179Z,100174.45
2019-03-18T01:38:09.856Z,100178.22
2019-03-18T01:40:39.665Z,100179.28
2019-03-18T01:43:09.378Z,100171.91
2019-03-18T01:45:41.070Z,100155.45
2019-03-18T01:48:10.560Z,100175.30
2019-03-18T01:50:40.264Z,100174.12
2019-03-18T01:53:09.945Z,100169.96
2019-03-18T01:55:39.637Z,100171.91
2019-03-18T01:58:09.387Z,100168.58
2019-03-18T02:00:39.781Z,100171.54
2019-03-18T02:03:09.464Z,100169.31
2019-03-18T02:05:39.275Z,100171.54
2019-03-18T02:08:08.962Z,100158.66
2019-03-18T02:10:39.060Z,100170.77
2019-03-18T02:13:08.872Z,100171.86
2019-03-18T02:15:38.581Z,100169.08
2019-03-18T02:18:08.282Z,100178.19
2019-03-18T02:20:38.102Z,100171.41
2019-03-18T02:23:07.805Z,100181.34
2019-03-18T02:25:37.531Z,100186.56
2019-03-18T02:28:07.210Z,100186.31
2019-03-18T02:30:36.916Z,100187.66
2019-03-18T02:33:06.607Z,100203.20
2019-03-18T02:35:36.302Z,100196.88
2019-03-18T02:38:05.997Z,100190.27
2019-03-18T02:40:35.705Z,100207.45
2019-03-18T02:43:05.402Z,100184.33
2019-03-18T02:45:35.244Z,100203.34
2019-03-18T02:48:04.937Z,100198.98
2019-03-18T02:50:34.673Z,100207.83
2019-03-18T02:53:05.322Z,100209.73
2019-03-18T02:55:35.237Z,100210.89
2019-03-18T02:58:04.960Z,100212.30
2019-03-18T03:00:34.665Z,100214.24
2019-03-18T03:03:04.635Z,100207.94
2019-03-18T03:05:34.425Z,100187.82
2019-03-18T03:08:05.060Z,100198.31
2019-03-18T03:10:34.951Z,100215.12
2019-03-18T03:13:04.996Z,100212.36
2019-03-18T03:15:34.762Z,100226.99
2019-03-18T03:18:04.602Z,100207.41
2019-03-18T03:20:34.309Z,100214.05
2019-03-18T03:23:04.012Z,100196.63
2019-03-18T03:25:33.763Z,100191.08
2019-03-18T03:28:03.467Z,100186.70
2019-03-18T03:30:33.358Z,100209.32
2019-03-18T03:33:03.125Z,100199.67
2019-03-18T03:35:32.801Z,100215.38
2019-03-18T03:38:02.528Z,100218.97
2019-03-18T03:40:32.290Z,100212.92
2019-03-18T03:43:02.038Z,100211.85
2019-03-18T03:45:31.731Z,100211.59
2019-03-18T03:48:01.493Z,100231.46
2019-03-18T03:50:31.157Z,100241.69
2019-03-18T03:53:00.984Z,100234.78
2019-03-18T03:55:31.111Z,100234.78
2019-03-18T03:58:00.912Z,100232.03
2019-03-18T04:00:30.588Z,100241.96
2019-03-18T04:03:00.301Z,100233.16
2019-03-18T04:05:30.256Z,100232.62
2019-03-18T04:08:00.011Z,100239.26
2019-03-18T04:10:29.964Z,100228.20
2019-03-18T04:12:59.725Z,100227.09
2019-03-18T04:15:29.497Z,100232.31
2019-03-18T04:17:59.242Z,100230.65
2019-03-18T04:20:28.920Z,100235.06
2019-03-18T04:22:58.639Z,100240.84
2019-03-18T04:25:28.343Z,100242.50
2019-03-18T04:27:58.050Z,100221.53
2019-03-18T04:30:27.770Z,100249.42
2019-03-18T04:32:57.418Z,100254.66
2019-03-18T04:35:27.100Z,100252.16
2019-03-18T04:37:56.788Z,100250.77
2019-03-18T04:40:26.479Z,100256.27
2019-03-18T04:42:56.200Z,100254.34
2019-03-18T04:45:25.966Z,100260.69
2019-03-18T04:47:55.664Z,100277.52
2019-03-18T04:50:25.356Z,100270.90
2019-03-18T04:52:55.083Z,100276.66
2019-03-18T04:55:24.766Z,100266.73
2019-03-18T04:57:54.460Z,100270.80
2019-03-18T05:00:24.152Z,100284.80
2019-03-18T05:02:54.023Z,100280.59
2019-03-18T05:05:23.702Z,100292.16
2019-03-18T05:07:53.448Z,100291.63
2019-03-18T05:10:23.143Z,100283.42
2019-03-18T05:12:52.850Z,100288.09
2019-03-18T05:15:22.555Z,100293.36
2019-03-18T05:17:52.277Z,100299.72
2019-03-18T05:20:22.007Z,100300.89
2019-03-18T05:22:51.716Z,100310.27
2019-03-18T05:25:21.480Z,100304.25
2019-03-18T05:27:51.181Z,100308.14
2019-03-18T05:30:20.950Z,100315.31
2019-03-18T05:32:50.668Z,100307.33
2019-03-18T05:35:20.352Z,100307.64
2019-03-18T05:37:50.037Z,100321.96
2019-03-18T05:40:19.717Z,100326.70
2019-03-18T05:42:49.398Z,100328.11
2019-03-18T05:45:19.077Z,100329.23
2019-03-18T05:47:48.797Z,100332.56
2019-03-18T05:50:18.495Z,100329.80
2019-03-18T05:52:48.286Z,100333.13
2019-03-18T05:55:17.983Z,100338.36
2019-03-18T05:57:47.724Z,100346.11
2019-03-18T06:00:20.876Z,100336.48
2019-03-18T06:02:50.556Z,100339.80
2019-03-18T06:05:20.255Z,100344.53
2019-03-18T06:07:49.949Z,100358.93
2019-03-18T06:10:19.646Z,100355.09
2019-03-18T06:12:49.426Z,100363.13
2019-03-18T06:15:19.155Z,100355.41
2019-03-18T06:17:52.591Z,100371.97
2019-03-18T06:20:20.226Z,100370.84
2019-03-18T06:22:49.914Z,100370.53
2019-03-18T06:25:19.658Z,100359.77
2019-03-18T06:27:49.340Z,100360.42
2019-03-18T06:30:26.050Z,100359.74
2019-03-18T06:32:55.991Z,100359.19
2019-03-18T06:35:25.667Z,100379.06
2019-03-18T06:37:55.359Z,100381.80
2019-03-18T06:40:25.022Z,100374.81
2019-03-18T06:42:54.723Z,100388.59
2019-03-18T06:45:24.436Z,100372.23
2019-03-18T06:48:04.384Z,100394.06
2019-03-18T06:50:25.497Z,100386.95
2019-03-18T06:52:55.200Z,100374.94
2019-03-18T06:55:24.883Z,100375.20
2019-03-18T06:57:54.591Z,100379.86
2019-03-18T07:00:24.371Z,100384.05
2019-03-18T07:02:54.148Z,100386.05
2019-03-18T07:05:23.827Z,100387.33
2019-03-18T07:07:53.615Z,100374.09
2019-03-18T07:10:23.302Z,100385.44
2019-03-18T07:12:53.168Z,100372.66
2019-03-18T07:15:22.843Z,100378.20
2019-03-18T07:17:53.516Z,100392.51
2019-03-18T07:20:23.300Z,100386.24
2019-03-18T07:22:53.020Z,100386.55
2019-03-18T07:25:22.723Z,100396.59
2019-03-18T07:27:52.425Z,100389.02
2019-03-18T07:30:22.149Z,100384.27
2019-03-18T07:32:51.842Z,100385.70
2019-03-18T07:35:21.538Z,100400.38
2019-03-18T07:37:51.270Z,100407.52
2019-03-18T07:40:21.041Z,100395.75
2019-03-18T07:42:50.748Z,100384.38
2019-03-18T07:45:20.463Z,100375.31
2019-03-18T07:47:50.272Z,100377.11
2019-03-18T07:50:20.046Z,100393.42
2019-03-18T07:52:50.917Z,100388.88
2019-03-18T07:55:20.607Z,100379.42
2019-03-18T07:57:50.295Z,100386.72
2019-03-18T08:00:19.990Z,100390.87
2019-03-18T08:02:49.689Z,100411.75
2019-03-18T08:05:19.401Z,100415.31
2019-03-18T08:07:49.088Z,100414.80
2019-03-18T08:10:18.795Z,100438.27
2019-03-18T08:12:48.491Z,100426.25
2019-03-18T08:15:18.180Z,100434.95
2019-03-18T08:17:47.882Z,100450.41
2019-03-18T08:20:17.577Z,100451.00
2019-03-18T08:22:47.377Z,100443.56
2019-03-18T08:25:17.169Z,100459.66
2019-03-18T08:27:46.867Z,100453.55
2019-03-18T08:30:16.615Z,100462.97
2019-03-18T08:32:46.389Z,100452.12
2019-03-18T10:59:21.968Z,100558.31
2019-03-18T11:01:51.659Z,100595.48
2019-03-18T11:04:21.464Z,100599.89
2019-03-18T11:06:52.180Z,100595.52
2019-03-18T11:09:21.924Z,100574.50
2019-03-18T11:11:51.645Z,100554.09
2019-03-18T11:14:21.332Z,100599.44
2019-03-18T11:16:52.517Z,100585.12
2019-03-18T11:19:22.414Z,100588.25
2019-03-18T11:21:52.215Z,100609.01
2019-03-18T11:24:21.896Z,100608.30
2019-03-18T11:26:51.679Z,100627.69
2019-03-18T11:29:21.393Z,100623.18
2019-03-18T11:31:51.078Z,100627.95
2019-03-18T11:34:20.826Z,100623.01
2019-03-18T11:36:50.563Z,100629.40
2019-03-18T11:39:20.257Z,100631.45
2019-03-18T11:41:49.956Z,100656.50
2019-03-18T11:44:19.892Z,100667.30
2019-03-18T11:46:49.664Z,100664.47
2019-03-18T11:49:19.341Z,100658.02
2019-03-18T11:51:50.333Z,100661.72
2019-03-18T11:54:20.209Z,100649.20
2019-03-18T11:56:50.378Z,100642.09
2019-03-18T11:59:21.043Z,100649.20
2019-03-18T12:01:50.914Z,100673.62
2019-03-18T12:04:20.707Z,100681.25
2019-03-18T12:06:50.469Z,100678.28
2019-03-18T12:09:20.166Z,100665.61
2019-03-18T12:11:49.879Z,100681.81
2019-03-18T12:14:19.592Z,100676.36
2019-03-18T12:16:49.407Z,100688.83
2019-03-18T12:19:19.088Z,100678.03
2019-03-18T12:21:48.791Z,100686.55
2019-03-18T12:24:18.459Z,100680.16
2019-03-18T12:26:49.275Z,100668.06
2019-03-18T12:29:19.187Z,100680.50
2019-03-18T12:31:48.892Z,100663.59
2019-03-18T12:34:18.611Z,100667.12
2019-03-18T12:36:48.309Z,100664.34
2019-03-18T12:39:18.026Z,100661.23
2019-03-18T12:41:47.755Z,100656.22
2019-03-18T12:44:17.618Z,100659.73
2019-03-18T12:46:48.298Z,100685.24
2019-03-18T12:49:18.071Z,100697.59
2019-03-18T12:51:47.813Z,100709.92
2019-03-18T12:54:17.518Z,100727.61
2019-03-18T12:56:47.335Z,100727.64
2019-03-18T12:59:17.033Z,100726.74
2019-03-18T13:01:47.722Z,100717.07
2019-03-18T13:04:17.394Z,100719.88
2019-03-18T13:06:47.093Z,100712.67
2019-03-18T13:09:16.802Z,100712.11
2019-03-18T13:11:46.539Z,100700.41
2019-03-18T13:14:16.227Z,100692.58
2019-03-18T13:16:45.994Z,100702.20
2019-03-18T13:19:15.693Z,100701.30
2019-03-18T13:21:45.411Z,100694.49
2019-03-18T13:24:15.150Z,100684.30
2019-03-18T13:26:44.854Z,100696.25
2019-03-18T13:29:14.577Z,100710.30
2019-03-18T13:31:44.254Z,100732.86
2019-03-18T13:34:13.996Z,100718.42
2019-03-18T13:36:43.685Z,100749.88
2019-03-18T13:39:13.368Z,100773.89
2019-03-18T13:41:43.050Z,100748.43
2019-03-18T13:44:12.726Z,100757.70
2019-03-18T13:46:42.455Z,100760.38
2019-03-18T13:49:12.229Z,100757.67
2019-03-18T13:51:41.986Z,100762.96
2019-03-18T13:54:11.644Z,100749.97
2019-03-18T13:56:41.382Z,100763.88
2019-03-18T13:59:11.066Z,100752.25
2019-03-18T14:01:40.740Z,100759.48
2019-03-18T14:04:10.517Z,100757.58
2019-03-18T14:06:40.259Z,100764.21
2019-03-18T14:09:10.172Z,100770.07
2019-03-18T14:11:39.952Z,100767.84
2019-03-18T14:14:09.664Z,100768.16
2019-03-18T14:16:39.389Z,100759.88
2019-03-18T14:19:09.088Z,100774.30
2019-03-18T14:21:38.840Z,100787.91
2019-03-18T14:24:08.604Z,100779.33
2019-03-18T14:26:39.347Z,100801.23
2019-03-18T14:29:10.036Z,100782.64
2019-03-18T14:31:43.399Z,100790.97
2019-03-18T14:34:12.491Z,100796.81
2019-03-18T14:36:42.191Z,100807.34
2019-03-18T14:39:13.479Z,100805.70
2019-03-18T14:41:43.648Z,100801.81
2019-03-18T14:44:13.358Z,100818.18
2019-03-18T14:46:43.175Z,100794.02
2019-03-18T14:49:12.903Z,100783.72
2019-03-18T14:51:46.031Z,100793.70
2019-03-18T14:54:14.034Z,100765.68
2019-03-18T14:56:43.743Z,100780.41
2019-03-18T14:59:13.446Z,100782.65
2019-03-18T15:01:43.178Z,100786.50
2019-03-18T15:04:13.692Z,100793.68
2019-03-18T15:06:43.725Z,100788.58
2019-03-18T15:09:13.415Z,100797.40
2019-03-18T15:11:43.233Z,100796.56
2019-03-18T15:14:13.691Z,100767.11
2019-03-18T15:16:44.237Z,100781.95
2019-03-18T15:19:14.718Z,100795.34
2019-03-18T15:21:57.614Z,100804.56
2019-03-18T15:24:17.553Z,100817.90
2019-03-18T15:26:48.169Z,100844.53
2019-03-18T15:29:17.878Z,100863.05
2019-03-18T15:31:47.614Z,100870.00
2019-03-18T15:34:17.271Z,100876.84
2019-03-18T15:36:47.144Z,100873.63
2019-03-18T15:39:17.110Z,100882.62
2019-03-18T15:41:47.115Z,100886.26
2019-03-18T15:44:17.871Z,100870.13
2019-03-18T15:46:47.599Z,100877.45
2019-03-18T15:49:17.599Z,100882.77
2019-03-18T15:51:47.338Z,100890.22
2019-03-18T15:54:18.148Z,100883.87
2019-03-18T15:56:47.882Z,100896.58
2019-03-18T15:59:17.559Z,100892.67
2019-03-18T16:01:47.302Z,100897.67
2019-03-18T16:04:17.805Z,100918.13
2019-03-18T16:06:47.549Z,100916.45
2019-03-18T16:09:17.337Z,100905.70
2019-03-18T16:11:47.168Z,100919.30
2019-03-18T16:14:19.673Z,100909.04
2019-03-18T16:17:01.245Z,100916.50
2019-03-18T16:19:20.870Z,100920.97
2019-03-18T16:21:51.414Z,100922.88
2019-03-18T16:24:21.555Z,100930.91
2019-03-18T16:26:52.285Z,100936.41
2019-03-18T16:29:23.115Z,100943.00
2019-03-18T16:31:53.172Z,100942.34
2019-03-18T16:34:23.105Z,100945.06
2019-03-18T16:36:52.792Z,100957.48
2019-03-18T16:39:23.524Z,100964.89
2019-03-18T16:41:54.330Z,100964.50
2019-03-18T16:44:24.214Z,100969.41
2019-03-18T16:46:54.146Z,100977.93
2019-03-18T16:49:24.249Z,100988.70
2019-03-18T16:51:54.990Z,100992.63
2019-03-18T16:54:25.650Z,101003.41
2019-03-18T16:56:55.353Z,101010.62
2019-03-18T16:59:25.050Z,101007.27
2019-03-18T17:01:55.604Z,101008.88
2019-03-18T17:04:25.334Z,101008.02
2019-03-18T17:06:55.020Z,101021.57
2019-03-18T17:09:25.278Z,101023.87
2019-03-18T17:11:55.380Z,101042.80
2019-03-18T17:14:25.179Z,101048.73
2019-03-18T17:16:54.869Z,101053.31
2019-03-18T17:19:24.929Z,101054.64
2019-03-18T17:21:54.646Z,101054.79
2019-03-18T17:24:24.709Z,101060.17
2019-03-18T17:26:54.813Z,101077.09
2019-03-18T17:29:24.869Z,101086.28
2019-03-18T17:31:54.556Z,101088.28
2019-03-18T17:34:24.274Z,101086.61
2019-03-18T17:36:54.033Z,101096.06
2019-03-18T17:39:24.011Z,101100.59
2019-03-18T17:41:53.972Z,101103.67
2019-03-18T17:44:23.684Z,101106.85
2019-03-18T17:46:54.386Z,101098.69
2019-03-18T17:49:24.629Z,101116.98
2019-03-18T17:51:55.878Z,101114.89
2019-03-18T17:54:25.622Z,101121.94
2019-03-18T17:57:06.706Z,101119.14
2019-03-18T17:59:26.798Z,101129.63
2019-03-18T18:01:56.497Z,101132.65
2019-03-18T18:04:26.274Z,101138.27
2019-03-18T18:06:56.094Z,101137.67
2019-03-18T18:09:26.885Z,101127.63
2019-03-18T18:11:56.642Z,101132.55
2019-03-18T18:14:26.490Z,101136.33
2019-03-18T18:16:56.262Z,101146.48
2019-03-18T18:19:26.240Z,101158.01
2019-03-18T18:21:55.991Z,101157.72
2019-03-18T18:24:25.692Z,101161.69
2019-03-18T18:26:55.388Z,101166.13
2019-03-18T18:29:25.746Z,101177.55
2019-03-18T18:31:56.608Z,101182.13
2019-03-18T18:34:26.303Z,101179.67
2019-03-18T18:36:57.551Z,101185.03
2019-03-18T18:39:27.245Z,101192.91
2019-03-18T18:41:56.908Z,101170.62
2019-03-18T18:44:26.610Z,101166.13
2019-03-18T18:46:56.411Z,101151.20
2019-03-18T18:49:26.145Z,101182.23
2019-03-18T18:51:56.064Z,101185.08
2019-03-18T18:54:25.746Z,101199.98
2019-03-18T18:56:55.811Z,101213.07
2019-03-18T18:59:25.555Z,101218.70
2019-03-18T19:01:55.367Z,101229.63
2019-03-18T19:04:25.124Z,101237.30
2019-03-18T19:06:54.889Z,101234.56
2019-03-18T19:09:25.899Z,101247.81
2019-03-18T19:11:55.607Z,101238.73
2019-03-18T19:14:25.472Z,101248.78
2019-03-18T19:16:55.184Z,101257.19
2019-03-18T19:19:24.938Z,101259.94
2019-03-18T19:21:54.726Z,101258.91
2019-03-18T19:24:24.577Z,101263.30
2019-03-18T19:26:54.620Z,101276.95
2019-03-18T19:29:24.368Z,101281.68
2019-03-18T19:31:54.326Z,101288.73
2019-03-18T19:34:24.274Z,101288.26
2019-03-18T19:36:54.123Z,101295.92
2019-03-18T19:39:23.929Z,101299.13
2019-03-18T19:41:54.959Z,101290.55
2019-03-18T19:44:24.727Z,101304.71
2019-03-18T19:46:54.417Z,101309.95
2019-03-18T19:49:24.313Z,101306.12
2019-03-18T19:51:54.005Z,101318.25
2019-03-18T19:54:23.894Z,101314.51
2019-03-18T19:56:53.656Z,101314.39
2019-03-18T19:59:23.483Z,101321.89
2019-03-18T20:01:53.236Z,101321.33
2019-03-18T20:04:23.064Z,101321.64
2019-03-18T20:06:52.743Z,101324.83
2019-03-18T20:09:22.522Z,101328.39
2019-03-18T20:11:52.365Z,101337.34
2019-03-18T20:14:22.121Z,101344.05
2019-03-18T20:16:52.765Z,101346.33
2019-03-18T20:19:22.469Z,101346.19
2019-03-18T20:21:52.232Z,101351.95
2019-03-18T20:24:21.996Z,101356.30
2019-03-18T20:26:51.689Z,101360.67
2019-03-18T20:29:21.485Z,101367.47
2019-03-18T20:31:51.247Z,101359.16
2019-03-18T20:34:21.533Z,101358.14
2019-03-18T20:36:51.416Z,101368.39
2019-03-18T20:39:21.274Z,101370.67
2019-03-18T20:41:50.963Z,101381.06
2019-03-18T20:44:20.692Z,101385.75
2019-03-18T20:46:50.396Z,101384.89
2019-03-18T20:49:20.234Z,101391.12
2019-03-18T20:51:50.178Z,101388.28
2019-03-18T20:54:19.877Z,101399.29
2019-03-18T20:56:49.598Z,101397.72
2019-03-18T20:59:19.339Z,101402.61
2019-03-18T21:01:49.074Z,101404.45
2019-03-18T21:04:18.857Z,101412.92
2019-03-18T21:06:48.704Z,101413.48
2019-03-18T21:09:18.408Z,101417.30
2019-03-18T21:11:48.146Z,101425.72
2019-03-18T21:14:17.849Z,101424.09
2019-03-18T21:16:47.513Z,101426.47
2019-03-18T21:19:17.232Z,101434.33
2019-03-18T21:21:46.912Z,101434.17
2019-03-18T21:24:23.147Z,101444.12
2019-03-18T21:26:48.081Z,101445.42
2019-03-18T21:29:17.798Z,101444.13
2019-03-18T21:31:47.494Z,101457.50
2019-03-18T21:34:17.210Z,101448.75
2019-03-18T21:36:46.905Z,101451.44
2019-03-18T21:39:18.083Z,101459.07
2019-03-18T21:41:48.309Z,101453.95
2019-03-18T21:44:18.160Z,101462.27
2019-03-18T21:46:48.898Z,101461.50
2019-03-18T21:49:18.754Z,101458.36
2019-03-18T21:51:48.441Z,101463.41
2019-03-18T21:54:18.163Z,101468.66
2019-03-18T21:56:47.925Z,101483.83
2019-03-18T21:59:17.585Z,101482.78
2019-03-18T22:01:47.307Z,101487.71
2019-03-18T22:04:17.105Z,101480.84
2019-03-18T22:06:46.804Z,101480.85
2019-03-18T22:09:16.483Z,101492.56
2019-03-18T22:11:46.371Z,101486.91
2019-03-18T22:14:15.985Z,101492.57
2019-03-18T22:16:45.794Z,101501.97
2019-03-18T22:19:15.867Z,101497.63
2019-03-18T22:21:45.663Z,101496.55
2019-03-18T22:24:15.340Z,101509.55
2019-03-18T22:26:45.033Z,101520.92
2019-03-18T22:29:14.770Z,101524.17
2019-03-18T22:31:44.618Z,101520.58
2019-03-18T22:34:14.417Z,101522.71
2019-03-18T22:36:44.113Z,101522.86
2019-03-18T22:39:13.767Z,101524.06
2019-03-18T22:41:43.551Z,101510.87
2019-03-18T22:44:13.230Z,101516.20
2019-03-18T22:46:43.177Z,101513.69
2019-03-18T22:49:12.954Z,101515.28
2019-03-18T22:51:42.671Z,101515.42
2019-03-18T22:54:12.418Z,101517.86
2019-03-18T22:56:42.171Z,101509.84
2019-03-18T22:59:11.923Z,101524.56
2019-03-18T23:01:41.744Z,101529.89
2019-03-18T23:04:11.410Z,101531.72
2019-03-18T23:06:41.167Z,101538.59
2019-03-18T23:09:10.917Z,101535.84
2019-03-18T23:11:40.727Z,101546.95
2019-03-18T23:14:10.655Z,101542.34
2019-03-18T23:16:40.336Z,101540.23
2019-03-18T23:19:10.977Z,101544.05
2019-03-18T23:21:40.731Z,101555.67
2019-03-18T23:24:12.413Z,101558.24
2019-03-18T23:26:42.622Z,101558.76
2019-03-18T23:29:13.193Z,101552.75
2019-03-18T23:31:43.086Z,101567.55
2019-03-18T23:34:14.399Z,101567.11
2019-03-18T23:36:44.312Z,101572.59
2019-03-18T23:39:14.137Z,101573.86
2019-03-18T23:41:43.996Z,101583.90
2019-03-18T23:44:14.395Z,101578.20
2019-03-18T23:46:46.790Z,101584.19
2019-03-18T23:49:16.523Z,101588.73
2019-03-18T23:51:46.312Z,101595.19
2019-03-18T23:54:16.085Z,101605.50
2019-03-18T23:56:46.084Z,101603.09
2019-03-18T23:59:15.873Z,101615.39
